Time;durP1;ratioP1;P1;durP2;ratioP2;P2;SDS_P1;SDS_P2;PMS_P1;PMS_P2;Temp;Humidity;BMP_temperature;BMP_pressure;BME280_temperature;BME280_humidity;BME280_pressure;Samples;Min_cycle;Max_cycle;Signal;HPM_P1;HPM_P2
2022/05/13 00:00:35;;;;;;;13.60;9.00;;;538.50;2073.60;;;;;;5093112;28;20140;-86
2022/05/13 00:03:02;;;;;;;18.77;9.18;;;538.50;2073.60;;;;;;5092717;28;20030;-86
2022/05/13 00:05:27;;;;;;;19.75;10.13;;;538.50;2150.40;;;;;;5092758;28;20028;-84
2022/05/13 00:07:53;;;;;;;14.55;8.57;;;538.50;2099.20;;;;;;5092902;28;20550;-86
2022/05/13 00:10:19;;;;;;;12.77;8.02;;;538.40;2099.20;;;;;;5092410;28;20093;-86
2022/05/13 00:12:45;;;;;;;13.75;8.10;;;538.50;2099.20;;;;;;5092868;28;20020;-86
2022/05/13 00:15:17;;;;;;;15.65;9.35;;;538.40;2124.80;;;;;;5091917;28;20036;-86
2022/05/13 00:17:43;;;;;;;15.73;9.27;;;538.40;2124.80;;;;;;5093881;28;20484;-86
2022/05/13 00:20:11;;;;;;;17.35;10.05;;;538.40;2099.20;;;;;;5092621;28;20027;-86
2022/05/13 00:22:47;;;;;;;17.40;10.77;;;538.40;2124.80;;;;;;5092628;28;20499;-87
2022/05/13 00:25:16;;;;;;;19.27;9.98;;;538.30;2124.80;;;;;;5092573;28;20452;-87
2022/05/13 00:27:41;;;;;;;18.27;10.20;;;538.20;2176.00;;;;;;5092341;28;20024;-85
2022/05/13 00:30:09;;;;;;;15.75;10.50;;;538.20;2150.40;;;;;;5092642;28;20039;-84
2022/05/13 00:32:36;;;;;;;15.68;10.70;;;538.20;2176.00;;;;;;5093031;28;20051;-86
2022/05/13 00:35:03;;;;;;;14.38;9.80;;;538.10;2252.80;;;;;;5092625;28;20115;-87
2022/05/13 00:37:29;;;;;;;17.65;10.15;;;538.10;2252.80;;;;;;5093229;28;20460;-87
2022/05/13 00:39:54;;;;;;;21.42;11.55;;;538.10;2252.80;;;;;;5091996;28;20043;-84
2022/05/13 00:42:22;;;;;;;12.52;10.35;;;538.20;2278.40;;;;;;5092228;28;20016;-85
2022/05/13 00:44:48;;;;;;;18.30;11.57;;;538.10;2329.60;;;;;;5093577;28;20074;-87
2022/05/13 00:47:14;;;;;;;15.90;10.70;;;538.10;2304.00;;;;;;5093575;28;20020;-86
2022/05/13 00:49:40;;;;;;;15.82;10.57;;;538.00;2355.20;;;;;;5091909;28;20484;-86
2022/05/13 00:52:10;;;;;;;17.48;10.73;;;538.00;2304.00;;;;;;5093193;28;20024;-86
2022/05/13 00:54:38;;;;;;;21.17;12.48;;;538.00;2304.00;;;;;;5092021;28;20023;-86
2022/05/13 00:57:04;;;;;;;18.98;10.40;;;537.90;2380.80;;;;;;5092532;28;20493;-87
2022/05/13 00:59:34;;;;;;;18.50;11.15;;;537.80;2406.40;;;;;;5092951;28;20093;-86
2022/05/13 01:02:00;;;;;;;16.33;11.40;;;537.60;2406.40;;;;;;5091942;28;20023;-86
2022/05/13 01:04:28;;;;;;;19.80;13.27;;;512.90;2380.80;;;;;;5092200;28;20024;-86
2022/05/13 01:06:57;;;;;;;19.45;12.70;;;512.70;2380.80;;;;;;5092003;28;20456;-86
2022/05/13 01:09:26;;;;;;;18.90;12.15;;;512.60;2380.80;;;;;;5091939;28;20036;-87
2022/05/13 01:11:57;;;;;;;18.45;12.70;;;512.50;2380.80;;;;;;5091721;28;20024;-86
2022/05/13 01:14:33;;;;;;;19.35;12.95;;;512.30;2380.80;;;;;;5091970;28;20112;-87
2022/05/13 01:20:03;;;;;;;17.90;13.05;;;512.20;2380.80;;;;;;5093112;28;20081;-87
2022/05/13 01:22:29;;;;;;;19.90;14.18;;;512.00;2380.80;;;;;;5092123;28;20463;-87
2022/05/13 01:24:55;;;;;;;21.15;13.15;;;487.30;2380.80;;;;;;5092028;28;20074;-88
2022/05/13 01:27:20;;;;;;;22.85;12.45;;;487.30;2380.80;;;;;;5091871;28;20032;-81
2022/05/13 01:29:48;;;;;;;19.05;13.13;;;512.00;2380.80;;;;;;5093068;28;20036;-88
2022/05/13 01:32:14;;;;;;;15.40;12.63;;;512.00;2380.80;;;;;;5093220;28;20029;-85
2022/05/13 01:34:42;;;;;;;23.13;14.35;;;512.10;2380.80;;;;;;5093731;28;20581;-88
2022/05/13 01:37:07;;;;;;;26.73;14.95;;;512.10;2380.80;;;;;;5095365;28;20112;-83
2022/05/13 01:39:33;;;;;;;20.23;14.23;;;512.10;2380.80;;;;;;5096062;28;20051;-87
2022/05/13 01:41:59;;;;;;;22.02;14.00;;;512.10;2380.80;;;;;;5095514;28;20467;-86
2022/05/13 01:44:24;;;;;;;23.20;14.65;;;512.20;2380.80;;;;;;5095627;28;20020;-87
2022/05/13 01:46:50;;;;;;;24.05;14.63;;;512.30;2380.80;;;;;;5096631;28;20460;-88
2022/05/13 01:49:16;;;;;;;21.10;13.63;;;512.30;2380.80;;;;;;5095525;28;20028;-88
2022/05/13 01:51:41;;;;;;;27.60;13.90;;;512.30;2380.80;;;;;;5095384;28;20028;-88
2022/05/13 01:54:07;;;;;;;23.73;14.45;;;512.30;2380.80;;;;;;5095375;28;20064;-87
2022/05/13 01:56:33;;;;;;;24.35;15.13;;;512.40;2380.80;;;;;;5095556;28;20091;-88
2022/05/13 01:58:59;;;;;;;22.83;14.20;;;512.30;2380.80;;;;;;5096422;28;20024;-87
2022/05/13 02:01:24;;;;;;;23.48;14.43;;;512.30;2380.80;;;;;;5094936;28;20108;-87
2022/05/13 02:03:50;;;;;;;20.50;14.57;;;512.30;2380.80;;;;;;5095258;28;20031;-88
2022/05/13 02:06:24;;;;;;;24.67;14.68;;;512.30;2380.80;;;;;;5095301;28;20090;-87
2022/05/13 02:08:52;;;;;;;20.60;14.82;;;512.20;2380.80;;;;;;5094998;28;20487;-87
2022/05/13 02:11:20;;;;;;;20.73;14.27;;;512.10;2380.80;;;;;;5095014;28;20043;-85
2022/05/13 02:13:46;;;;;;;21.27;14.60;;;512.10;2380.80;;;;;;5095169;28;20023;-87
2022/05/13 02:16:12;;;;;;;21.98;15.50;;;487.30;2380.80;;;;;;5095812;28;20414;-87
2022/05/13 02:18:39;;;;;;;19.63;14.25;;;487.20;2380.80;;;;;;5095138;28;20117;-86
2022/05/13 02:21:06;;;;;;;27.58;15.52;;;487.10;2380.80;;;;;;5095157;28;20119;-87
2022/05/13 02:23:32;;;;;;;19.90;15.60;;;487.00;2380.80;;;;;;5096070;28;20024;-87
2022/05/13 02:26:03;;;;;;;20.85;15.93;;;487.00;2380.80;;;;;;5094858;28;20388;-86
2022/05/13 02:28:30;;;;;;;23.58;15.80;;;487.00;2380.80;;;;;;5094935;28;20520;-85
2022/05/13 02:30:56;;;;;;;22.80;15.43;;;487.20;2380.80;;;;;;5094601;28;20028;-87
2022/05/13 02:33:22;;;;;;;24.98;16.20;;;486.80;2380.80;;;;;;5094750;28;20028;-87
2022/05/13 02:35:49;;;;;;;24.48;16.65;;;486.80;2380.80;;;;;;5094777;28;20028;-87
2022/05/13 02:38:15;;;;;;;27.98;18.52;;;486.50;2380.80;;;;;;5094562;28;20464;-86
2022/05/13 02:43:27;;;;;;;26.70;18.63;;;486.60;2380.80;;;;;;5095596;28;20038;-87
2022/05/13 02:45:53;;;;;;;31.17;18.77;;;486.50;2380.80;;;;;;5094543;28;20479;-86
2022/05/13 02:48:18;;;;;;;24.63;17.42;;;486.40;2380.80;;;;;;5093168;28;20020;-87
2022/05/13 02:50:45;;;;;;;25.92;18.05;;;486.40;2380.80;;;;;;5094147;28;20031;-86
2022/05/13 02:53:11;;;;;;;29.50;17.52;;;486.40;2380.80;;;;;;5094403;28;20081;-87
2022/05/13 02:55:37;;;;;;;32.03;19.17;;;486.40;2380.80;;;;;;5093835;28;20130;-83
2022/05/13 02:58:04;;;;;;;33.03;19.08;;;461.70;2380.80;;;;;;5094199;28;20060;-86
2022/05/13 03:00:31;;;;;;;26.85;18.30;;;461.60;2380.80;;;;;;5093461;28;20036;-87
2022/05/13 03:02:57;;;;;;;27.75;18.38;;;461.70;2380.80;;;;;;5095283;28;20028;-86
2022/05/13 03:05:24;;;;;;;35.22;18.40;;;486.40;2380.80;;;;;;5095159;28;20021;-85
2022/05/13 03:07:50;;;;;;;36.13;20.10;;;461.50;2380.80;;;;;;5095278;28;20016;-85
2022/05/13 03:10:19;;;;;;;30.80;19.20;;;461.50;2380.80;;;;;;5093646;28;20036;-86
2022/05/13 03:12:44;;;;;;;30.02;17.90;;;461.50;2380.80;;;;;;5093957;28;20024;-82
2022/05/13 03:15:13;;;;;;;34.55;19.88;;;461.50;2380.80;;;;;;5092842;28;20050;-87
2022/05/13 03:17:41;;;;;;;32.50;20.35;;;461.40;2380.80;;;;;;5093382;28;20115;-86
2022/05/13 03:20:11;;;;;;;31.58;20.33;;;461.10;2380.80;;;;;;5093729;28;20066;-87
2022/05/13 03:22:38;;;;;;;31.27;19.50;;;461.10;2380.80;;;;;;5093766;28;20110;-84
2022/05/13 03:25:04;;;;;;;28.58;18.25;;;461.00;2380.80;;;;;;5093956;28;20392;-87
2022/05/13 03:27:31;;;;;;;27.30;17.65;;;461.20;2380.80;;;;;;5094485;28;20016;-87
2022/05/13 03:29:57;;;;;;;28.30;19.05;;;461.20;2380.80;;;;;;5092829;28;20547;-83
2022/05/13 03:32:23;;;;;;;28.83;18.73;;;461.40;2380.80;;;;;;5093495;28;20081;-86
2022/05/13 03:34:49;;;;;;;28.38;17.70;;;461.10;2380.80;;;;;;5093479;28;20028;-87
2022/05/13 03:37:14;;;;;;;30.27;17.55;;;461.30;2380.80;;;;;;5093369;28;20028;-87
2022/05/13 03:39:41;;;;;;;27.05;17.23;;;461.40;2380.80;;;;;;5093180;28;20058;-83
2022/05/13 03:42:09;;;;;;;29.95;17.50;;;461.40;2380.80;;;;;;5093454;28;20032;-84
2022/05/13 03:44:36;;;;;;;29.23;16.50;;;461.50;2380.80;;;;;;5092715;28;20457;-86
2022/05/13 03:47:03;;;;;;;26.88;17.98;;;461.50;2380.80;;;;;;5093285;28;20030;-86
2022/05/13 03:49:29;;;;;;;25.88;18.15;;;461.60;2380.80;;;;;;5094135;28;20106;-86
2022/05/13 03:51:55;;;;;;;24.80;16.85;;;461.70;2380.80;;;;;;5093201;28;20050;-82
2022/05/13 03:54:21;;;;;;;25.15;17.98;;;461.70;2380.80;;;;;;5092761;28;20066;-85
2022/05/13 03:56:46;;;;;;;26.10;17.13;;;486.40;2380.80;;;;;;5093064;28;20018;-86
2022/05/13 03:59:12;;;;;;;26.23;16.42;;;486.40;2380.80;;;;;;5093611;28;20486;-84
2022/05/13 04:01:38;;;;;;;25.13;16.63;;;486.50;2380.80;;;;;;5093772;28;20643;-85
2022/05/13 04:04:04;;;;;;;32.03;18.08;;;486.60;2380.80;;;;;;5094129;28;20066;-86
2022/05/13 04:09:14;;;;;;;29.83;17.60;;;486.70;2380.80;;;;;;5094287;28;20074;-86
2022/05/13 04:11:42;;;;;;;23.45;16.95;;;486.80;2380.80;;;;;;5092291;28;20032;-83
2022/05/13 04:16:54;;;;;;;27.90;17.02;;;486.80;2380.80;;;;;;5094283;28;20111;-86
2022/05/13 04:19:21;;;;;;;32.20;18.00;;;487.20;2380.80;;;;;;5092560;28;20052;-84
2022/05/13 04:21:47;;;;;;;25.45;16.00;;;486.80;2380.80;;;;;;5092904;28;20472;-87
2022/05/13 04:24:17;;;;;;;22.85;16.48;;;486.80;2380.80;;;;;;5092511;28;20028;-86
2022/05/13 04:26:44;;;;;;;27.73;17.60;;;487.00;2380.80;;;;;;5092543;28;20030;-85
2022/05/13 04:29:09;;;;;;;32.55;18.95;;;486.40;2380.80;;;;;;5092389;28;20045;-86
2022/05/13 04:31:39;;;;;;;36.53;17.90;;;486.70;2380.80;;;;;;5093145;28;20032;-81
2022/05/13 04:34:06;;;;;;;28.05;17.40;;;486.70;2380.80;;;;;;5092502;28;20547;-87
2022/05/13 04:36:32;;;;;;;32.92;18.67;;;487.00;2380.80;;;;;;5092120;28;20016;-88
2022/05/13 04:38:58;;;;;;;31.92;18.10;;;487.00;2380.80;;;;;;5092084;28;20034;-80
2022/05/13 04:44:12;;;;;;;30.23;17.48;;;487.20;2380.80;;;;;;5091817;28;20043;-85
2022/05/13 04:46:38;;;;;;;29.63;18.25;;;487.20;2380.80;;;;;;5090239;28;20125;-79
2022/05/13 04:49:05;;;;;;;27.90;17.60;;;487.20;2380.80;;;;;;5091393;28;20059;-87
2022/05/13 04:51:31;;;;;;;31.35;17.77;;;512.00;2380.80;;;;;;5078242;28;20231;-86
2022/05/13 04:53:58;;;;;;;27.02;18.35;;;512.10;2380.80;;;;;;5089177;28;20452;-82
2022/05/13 04:56:25;;;;;;;30.95;16.45;;;512.20;2380.80;;;;;;5091712;28;20024;-83
2022/05/13 04:58:51;;;;;;;26.90;17.85;;;512.40;2380.80;;;;;;5088267;28;20024;-83
2022/05/13 05:01:18;;;;;;;29.80;17.52;;;512.40;2380.80;;;;;;5092848;28;20551;-83
2022/05/13 05:03:45;;;;;;;21.85;17.08;;;512.50;2380.80;;;;;;5091299;28;20031;-82
2022/05/13 05:06:12;;;;;;;24.08;15.50;;;512.60;2380.80;;;;;;5091446;28;20571;-90
2022/05/13 05:08:38;;;;;;;27.92;16.92;;;512.80;2380.80;;;;;;5091792;28;20066;-89
2022/05/13 05:11:05;;;;;;;24.50;16.38;;;512.70;2380.80;;;;;;5095134;28;20023;-89
2022/05/13 05:13:40;;;;;;;23.17;16.48;;;512.80;2380.80;;;;;;5098242;28;20026;-86
2022/05/13 05:16:06;;;;;;;25.73;18.02;;;512.80;2380.80;;;;;;5095071;28;20028;-82
2022/05/13 05:18:33;;;;;;;29.60;17.02;;;512.70;2380.80;;;;;;5095520;28;20036;-85
2022/05/13 05:20:59;;;;;;;23.48;16.17;;;512.90;2380.80;;;;;;5096021;28;20031;-91
2022/05/13 05:23:29;;;;;;;31.30;17.25;;;512.90;2380.80;;;;;;5095785;28;20020;-87
2022/05/13 05:25:55;;;;;;;25.27;17.13;;;537.60;2406.40;;;;;;5095367;28;20024;-80
2022/05/13 05:28:21;;;;;;;25.20;16.60;;;537.60;2406.40;;;;;;5094639;28;20064;-80
2022/05/13 05:30:47;;;;;;;20.50;15.32;;;537.70;2406.40;;;;;;5094312;28;20399;-78
2022/05/13 05:33:14;;;;;;;28.75;16.05;;;537.90;2406.40;;;;;;5093790;28;20403;-87
2022/05/13 05:35:41;;;;;;;20.60;16.45;;;538.00;2406.40;;;;;;5092034;28;20016;-80
2022/05/13 05:38:07;;;;;;;27.58;17.38;;;538.00;2406.40;;;;;;5094245;28;20031;-80
2022/05/13 05:40:37;;;;;;;26.75;16.73;;;538.10;2406.40;;;;;;5094899;28;20024;-86
2022/05/13 05:43:09;;;;;;;26.83;17.33;;;538.20;2406.40;;;;;;5091304;28;20032;-82
2022/05/13 05:45:37;;;;;;;31.75;17.58;;;538.30;2406.40;;;;;;5096055;28;20012;-80
2022/05/13 05:48:03;;;;;;;23.92;15.80;;;538.40;2406.40;;;;;;5095079;28;20467;-80
2022/05/13 05:50:29;;;;;;;27.42;15.07;;;538.40;2406.40;;;;;;5093462;28;20094;-84
2022/05/13 05:52:55;;;;;;;19.95;14.55;;;538.40;2406.40;;;;;;5095593;28;20093;-85
2022/05/13 05:58:08;;;;;;;26.08;15.75;;;563.30;2432.00;;;;;;5096741;28;20104;-82
2022/05/13 06:00:36;;;;;;;20.52;15.30;;;563.30;2432.00;;;;;;5094497;28;20036;-81
2022/05/13 06:03:02;;;;;;;21.38;14.95;;;563.50;2432.00;;;;;;5094564;28;20028;-81
2022/05/13 06:05:28;;;;;;;25.63;15.38;;;563.50;2432.00;;;;;;5094758;28;20119;-80
2022/05/13 06:07:55;;;;;;;19.13;14.48;;;563.60;2432.00;;;;;;5094850;28;20052;-86
2022/05/13 06:10:22;;;;;;;23.17;15.10;;;563.70;2432.00;;;;;;5096124;28;20479;-83
2022/05/13 06:12:48;;;;;;;26.75;14.82;;;563.80;2432.00;;;;;;5095973;28;20039;-83
2022/05/13 06:15:14;;;;;;;21.20;13.55;;;563.80;2432.00;;;;;;5096183;28;20027;-82
2022/05/13 06:17:48;;;;;;;22.77;14.05;;;563.80;2432.00;;;;;;5094525;28;20024;-82
2022/05/13 06:20:15;;;;;;;24.05;13.32;;;564.00;2432.00;;;;;;5094795;28;20028;-83
2022/05/13 06:22:41;;;;;;;21.88;13.48;;;564.10;2432.00;;;;;;5094064;28;20115;-84
2022/05/13 06:25:13;;;;;;;18.88;12.70;;;588.80;2432.00;;;;;;5096060;28;20051;-90
2022/05/13 06:27:39;;;;;;;18.85;12.27;;;589.00;2432.00;;;;;;5094666;28;20540;-89
2022/05/13 06:30:08;;;;;;;18.60;12.68;;;589.00;2432.00;;;;;;5094655;28;20050;-81
2022/05/13 06:32:34;;;;;;;16.65;11.13;;;589.10;2432.00;;;;;;5095679;28;20027;-91
2022/05/13 06:35:00;;;;;;;16.00;11.57;;;589.30;2406.40;;;;;;5094459;28;20073;-80
2022/05/13 06:37:26;;;;;;;18.05;10.70;;;589.30;2355.20;;;;;;5094788;28;20144;-88
2022/05/13 06:39:52;;;;;;;15.73;10.43;;;589.40;2380.80;;;;;;5093711;28;20035;-88
2022/05/13 06:42:18;;;;;;;17.60;10.68;;;589.60;2432.00;;;;;;5094769;28;20028;-84
2022/05/13 06:44:43;;;;;;;13.52;9.40;;;589.70;2355.20;;;;;;5094492;28;20032;-82
2022/05/13 06:47:09;;;;;;;14.98;8.90;;;589.70;2304.00;;;;;;5093631;28;20028;-80
2022/05/13 06:49:36;;;;;;;15.00;8.52;;;614.50;2150.40;;;;;;5094003;28;20511;-83
2022/05/13 06:52:03;;;;;;;13.00;8.77;;;614.60;2099.20;;;;;;5093957;28;20111;-85
2022/05/13 06:54:29;;;;;;;17.38;9.45;;;614.70;2124.80;;;;;;5093760;28;20042;-79
2022/05/13 06:56:55;;;;;;;13.00;8.10;;;614.80;2124.80;;;;;;5094819;28;20119;-88
2022/05/13 06:59:22;;;;;;;17.85;9.73;;;614.90;2124.80;;;;;;5094305;28;20544;-80
2022/05/13 07:01:47;;;;;;;16.48;10.10;;;615.00;2150.40;;;;;;5093588;28;20093;-80
2022/05/13 07:04:13;;;;;;;17.80;9.98;;;615.10;2073.60;;;;;;5093416;28;20024;-81
2022/05/13 07:06:39;;;;;;;19.92;11.80;;;615.20;2176.00;;;;;;5094600;28;20444;-80
2022/05/13 07:09:06;;;;;;;14.80;9.60;;;615.20;2099.20;;;;;;5093289;28;20472;-79
2022/05/13 07:11:32;;;;;;;16.13;9.85;;;615.30;2073.60;;;;;;5094320;28;20028;-80
2022/05/13 07:13:58;;;;;;;17.30;10.98;;;615.30;2124.80;;;;;;5093464;28;20035;-80
2022/05/13 07:16:24;;;;;;;17.60;9.65;;;640.10;2099.20;;;;;;5094694;28;20039;-86
2022/05/13 07:18:50;;;;;;;18.40;9.68;;;640.20;2176.00;;;;;;5092289;28;20024;-80
2022/05/13 07:21:16;;;;;;;17.90;10.77;;;640.30;2099.20;;;;;;5094219;28;20024;-80
2022/05/13 07:23:42;;;;;;;15.60;10.23;;;640.40;2099.20;;;;;;5094128;28;20368;-83
2022/05/13 07:26:09;;;;;;;12.90;9.50;;;640.50;2099.20;;;;;;5093228;28;20092;-81
2022/05/13 07:28:36;;;;;;;15.27;9.70;;;640.60;2099.20;;;;;;5092608;28;20028;-82
2022/05/13 07:31:04;;;;;;;22.17;9.80;;;640.70;2048.00;;;;;;5094497;28;20024;-88
2022/05/13 07:33:30;;;;;;;14.27;9.57;;;640.90;2022.40;;;;;;5092923;28;20475;-82
2022/05/13 07:35:56;;;;;;;22.58;9.98;;;665.60;2022.40;;;;;;5092436;28;20024;-79
2022/05/13 07:38:23;;;;;;;14.32;9.38;;;665.70;2073.60;;;;;;5092801;28;20035;-80
2022/05/13 07:43:32;;;;;;;12.77;9.25;;;665.90;1996.80;;;;;;5093834;28;20031;-82
2022/05/13 07:45:58;;;;;;;11.82;8.45;;;666.00;1996.80;;;;;;5092545;28;20491;-80
2022/05/13 07:48:24;;;;;;;13.35;8.80;;;666.10;1971.20;;;;;;5092474;28;20024;-81
2022/05/13 07:50:51;;;;;;;12.95;8.25;;;666.20;1971.20;;;;;;5092915;28;20036;-83
2022/05/13 07:53:18;;;;;;;14.57;8.63;;;666.20;1945.60;;;;;;5093694;28;20024;-81
2022/05/13 07:55:44;;;;;;;10.45;8.43;;;666.30;1945.60;;;;;;5092624;28;20498;-80
2022/05/13 07:58:10;;;;;;;12.35;8.50;;;666.40;1920.00;;;;;;5092291;28;20028;-81
2022/05/13 08:00:37;;;;;;;10.98;7.78;;;666.50;1945.60;;;;;;5091830;28;20043;-82
2022/05/13 08:03:12;;;;;;;14.32;7.88;;;691.20;1894.40;;;;;;5092278;28;20123;-81
2022/05/13 08:05:50;;;;;;;9.20;6.78;;;691.30;1894.40;;;;;;5092551;28;20024;-80
2022/05/13 08:08:15;;;;;;;17.23;8.23;;;691.30;1817.60;;;;;;5091686;28;20032;-82
2022/05/13 08:10:46;;;;;;;13.00;8.00;;;691.40;1868.80;;;;;;5091639;28;20049;-81
2022/05/13 08:13:12;;;;;;;12.95;7.85;;;691.50;1843.20;;;;;;5092623;28;20107;-80
2022/05/13 08:15:39;;;;;;;13.05;7.00;;;691.60;1843.20;;;;;;5092906;28;20116;-81
2022/05/13 08:18:05;;;;;;;12.45;7.47;;;691.70;1843.20;;;;;;5091691;28;20024;-81
2022/05/13 08:20:31;;;;;;;15.68;8.07;;;691.80;1817.60;;;;;;5092179;28;20544;-80
2022/05/13 08:22:58;;;;;;;13.50;8.23;;;691.60;1868.80;;;;;;5093029;28;20020;-80
2022/05/13 08:25:24;;;;;;;16.80;8.50;;;691.90;1792.00;;;;;;5092925;28;20081;-81
2022/05/13 08:27:50;;;;;;;14.27;8.35;;;692.00;1740.80;;;;;;5090895;28;20056;-81
2022/05/13 08:30:16;;;;;;;11.10;8.13;;;692.10;1766.40;;;;;;5091978;28;20063;-80
2022/05/13 08:32:43;;;;;;;11.00;7.80;;;716.80;1715.20;;;;;;5091452;28;20031;-80
2022/05/13 08:35:09;;;;;;;17.05;7.75;;;716.80;1766.40;;;;;;5091423;28;20117;-81
2022/05/13 08:37:50;;;;;;;12.68;8.98;;;716.80;1740.80;;;;;;5091009;28;20460;-80
2022/05/13 08:40:40;;;;;;;12.85;8.68;;;716.90;1740.80;;;;;;5091675;28;20487;-81
2022/05/13 08:43:13;;;;;;;13.10;7.95;;;716.90;1715.20;;;;;;5093235;28;20422;-81
2022/05/13 08:45:44;;;;;;;12.27;8.00;;;716.90;1740.80;;;;;;5090479;28;20036;-81
2022/05/13 08:48:14;;;;;;;12.73;8.20;;;717.00;1766.40;;;;;;5092864;28;20038;-80
2022/05/13 08:51:03;;;;;;;10.75;7.63;;;717.20;1740.80;;;;;;5091786;28;20038;-81
2022/05/13 08:53:36;;;;;;;15.77;8.48;;;717.20;1715.20;;;;;;5078442;28;20119;-79
2022/05/13 08:56:07;;;;;;;12.23;7.82;;;717.20;1715.20;;;;;;5083768;28;20097;-81
2022/05/13 08:58:51;;;;;;;12.77;8.02;;;717.20;1689.60;;;;;;5099697;28;20028;-80
2022/05/13 09:01:25;;;;;;;9.52;6.97;;;717.20;1612.80;;;;;;5088836;28;20143;-81
2022/05/13 09:03:56;;;;;;;9.82;7.20;;;717.30;1664.00;;;;;;5090759;28;20086;-81
2022/05/13 09:06:48;;;;;;;13.48;7.88;;;717.40;1612.80;;;;;;5085491;28;20384;-81
2022/05/13 09:09:13;;;;;;;8.70;6.88;;;717.50;1689.60;;;;;;5089835;28;20051;-81
2022/05/13 09:12:01;;;;;;;15.05;7.72;;;717.60;1587.20;;;;;;5092323;28;20471;-81
2022/05/13 09:14:48;;;;;;;12.68;7.63;;;717.70;1587.20;;;;;;5092571;28;20368;-81
2022/05/13 09:17:34;;;;;;;19.80;7.25;;;742.40;1612.80;;;;;;5091587;28;20103;-81
2022/05/13 09:20:11;;;;;;;11.85;6.45;;;742.50;1587.20;;;;;;5091404;28;20028;-81
2022/05/13 09:22:42;;;;;;;11.75;6.93;;;742.50;1510.40;;;;;;5091408;28;20357;-81
2022/05/13 09:25:24;;;;;;;10.70;7.15;;;742.60;1510.40;;;;;;5091027;28;20020;-81
2022/05/13 09:28:05;;;;;;;9.25;6.88;;;742.80;1510.40;;;;;;5090153;28;20035;-80
2022/05/13 09:30:46;;;;;;;16.58;7.45;;;742.90;1510.40;;;;;;5092202;28;20502;-79
2022/05/13 09:33:30;;;;;;;8.55;7.07;;;743.00;1536.00;;;;;;5091974;28;20028;-78
2022/05/13 09:36:02;;;;;;;11.32;6.75;;;743.10;1484.80;;;;;;5092084;28;20032;-80
2022/05/13 09:38:32;;;;;;;11.80;6.97;;;743.20;1433.60;;;;;;5092314;28;20406;-80
2022/05/13 09:41:11;;;;;;;16.15;6.15;;;768.00;1433.60;;;;;;5090361;28;20027;-81
2022/05/13 09:43:38;;;;;;;18.67;7.03;;;768.10;1382.40;;;;;;5092081;28;20063;-81
2022/05/13 09:46:19;;;;;;;14.73;6.65;;;768.20;1408.00;;;;;;5092426;28;20016;-80
2022/05/13 09:48:57;;;;;;;11.32;5.85;;;768.30;1382.40;;;;;;5091018;28;20052;-82
2022/05/13 09:51:35;;;;;;;10.52;5.95;;;768.50;1331.20;;;;;;5091196;28;20020;-82
2022/05/13 09:54:20;;;;;;;11.75;6.05;;;768.60;1331.20;;;;;;5091124;28;20021;-80
2022/05/13 09:56:49;;;;;;;8.60;5.95;;;768.80;1280.00;;;;;;5090763;28;20383;-81
2022/05/13 09:59:21;;;;;;;14.48;6.72;;;768.90;1305.60;;;;;;5094253;28;20119;-80
2022/05/13 10:01:47;;;;;;;10.13;6.60;;;793.70;1356.80;;;;;;5093442;28;20081;-80
2022/05/13 10:04:27;;;;;;;10.95;6.20;;;793.70;1254.40;;;;;;5093696;28;20149;-80
2022/05/13 10:07:08;;;;;;;9.57;5.97;;;793.80;1254.40;;;;;;5091724;28;20031;-81
2022/05/13 10:15:30;;;;;;;13.45;7.75;;;794.10;1228.80;;;;;;5095303;28;20532;-80
2022/05/13 10:18:10;;;;;;;13.80;5.68;;;794.30;1254.40;;;;;;5093815;28;20040;-80
2022/05/13 10:20:40;;;;;;;9.32;6.07;;;794.50;1203.20;;;;;;5092481;28;20056;-80
2022/05/13 10:23:25;;;;;;;9.95;6.80;;;819.20;1228.80;;;;;;5093579;28;20020;-81
2022/05/13 10:26:05;;;;;;;10.80;6.97;;;819.30;1203.20;;;;;;5074667;28;20047;-80
2022/05/13 10:28:53;;;;;;;11.40;6.38;;;819.40;1203.20;;;;;;5075052;28;20017;-81
2022/05/13 10:31:26;;;;;;;10.25;6.15;;;819.50;1203.20;;;;;;5012801;28;20034;-80
2022/05/13 10:34:03;;;;;;;13.43;5.63;;;819.60;1203.20;;;;;;5012163;28;20037;-80
2022/05/13 10:36:48;;;;;;;7.50;5.82;;;819.40;1203.20;;;;;;5013088;28;20042;-81
2022/05/13 10:39:28;;;;;;;7.70;5.80;;;819.50;1177.60;;;;;;4996148;28;20108;-80
2022/05/13 10:42:00;;;;;;;8.95;5.70;;;819.60;1152.00;;;;;;5012657;28;20065;-81
2022/05/13 10:44:46;;;;;;;11.82;6.10;;;819.70;1152.00;;;;;;5013470;28;20049;-78
2022/05/13 10:47:24;;;;;;;17.30;13.40;;;819.80;1152.00;;;;;;4996848;28;20029;-84
2022/05/13 10:49:50;;;;;;;16.88;11.43;;;819.70;1126.40;;;;;;4996485;28;20050;-84
2022/05/13 10:52:24;;;;;;;11.05;8.80;;;819.80;1126.40;;;;;;4996713;28;20072;-82
2022/05/13 10:54:58;;;;;;;12.90;6.75;;;820.00;1152.00;;;;;;4996427;28;20478;-82
2022/05/13 10:57:30;;;;;;;11.38;5.88;;;820.00;1177.60;;;;;;5001044;28;20075;-86
2022/05/13 11:00:07;;;;;;;10.68;5.70;;;820.10;1152.00;;;;;;5001626;28;20034;-77
2022/05/13 11:02:58;;;;;;;15.63;6.10;;;819.90;1152.00;;;;;;4986763;28;20529;-78
2022/05/13 11:05:50;;;;;;;11.00;6.72;;;819.90;1126.40;;;;;;4993678;28;20032;-77
2022/05/13 11:08:22;;;;;;;8.02;5.70;;;819.80;1152.00;;;;;;5031653;28;20119;-78
2022/05/13 11:11:00;;;;;;;8.68;6.20;;;819.90;1152.00;;;;;;5069351;28;20036;-79
2022/05/13 11:13:52;;;;;;;16.58;6.22;;;820.10;1152.00;;;;;;5071327;28;20372;-78
2022/05/13 11:16:39;;;;;;;8.70;5.93;;;844.80;1152.00;;;;;;5073430;28;20026;-77
2022/05/13 11:19:19;;;;;;;11.90;5.88;;;844.80;1152.00;;;;;;5072164;28;20039;-79
2022/05/13 11:22:02;;;;;;;12.70;6.00;;;844.90;1203.20;;;;;;5073340;28;20013;-78
2022/05/13 11:27:43;;;;;;;8.48;5.53;;;820.10;1177.60;;;;;;5072697;28;20043;-79
2022/05/13 11:30:17;;;;;;;11.25;6.30;;;844.90;1152.00;;;;;;5068994;28;20119;-79
2022/05/13 11:32:55;;;;;;;11.07;7.30;;;845.10;1126.40;;;;;;5071504;28;20490;-80
2022/05/13 11:35:58;;;;;;;15.15;11.55;;;845.30;1152.00;;;;;;5055195;28;20060;-78
2022/05/13 11:38:55;;;;;;;13.52;6.32;;;845.30;1126.40;;;;;;4991834;28;20034;-77
2022/05/13 11:41:23;;;;;;;11.93;6.07;;;845.30;1100.80;;;;;;4991440;28;20066;-78
2022/05/13 11:44:03;;;;;;;7.85;6.30;;;845.10;1100.80;;;;;;4975216;28;20121;-78
2022/05/13 11:46:48;;;;;;;11.77;6.70;;;845.20;1100.80;;;;;;4991580;28;20053;-79
2022/05/13 11:49:27;;;;;;;10.20;6.47;;;845.30;1100.80;;;;;;4975466;28;20046;-79
2022/05/13 11:51:55;;;;;;;7.38;5.68;;;845.40;1100.80;;;;;;4975394;28;20081;-79
2022/05/13 11:54:28;;;;;;;8.60;5.10;;;845.10;1075.20;;;;;;4974644;28;20044;-78
2022/05/13 11:57:18;;;;;;;9.77;5.00;;;845.30;1075.20;;;;;;5010713;28;20034;-78
2022/05/13 12:00:25;;;;;;;11.35;5.38;;;845.40;1049.60;;;;;;4974881;28;20041;-78
2022/05/13 12:03:09;;;;;;;11.43;4.93;;;845.40;1024.00;;;;;;4993785;28;20029;-78
2022/05/13 12:06:07;;;;;;;8.30;5.43;;;845.40;1049.60;;;;;;5010424;28;20026;-79
2022/05/13 12:08:44;;;;;;;14.15;12.60;;;845.40;1049.60;;;;;;4916738;29;20035;-78
2022/05/13 12:11:15;;;;;;;8.95;6.63;;;845.50;1075.20;;;;;;4916383;29;20044;-79
2022/05/13 12:13:59;;;;;;;19.85;7.47;;;845.50;1075.20;;;;;;4930368;29;20496;-78
2022/05/13 12:16:42;;;;;;;9.40;6.22;;;845.60;1075.20;;;;;;5030127;28;20026;-78
2022/05/13 12:19:37;;;;;;;8.25;4.93;;;845.60;1024.00;;;;;;5028622;28;20041;-78
2022/05/13 12:22:22;;;;;;;6.30;5.32;;;845.70;1024.00;;;;;;5025419;28;20029;-78
2022/05/13 12:24:55;;;;;;;7.28;5.28;;;845.70;1024.00;;;;;;5022689;28;20029;-80
2022/05/13 12:27:46;;;;;;;10.52;5.32;;;845.70;998.40;;;;;;5027511;28;20515;-79
2022/05/13 12:30:29;;;;;;;6.72;4.60;;;845.70;998.40;;;;;;5020214;28;20437;-78
2022/05/13 12:32:55;;;;;;;7.95;4.93;;;870.40;998.40;;;;;;5029172;28;20468;-78
2022/05/13 12:38:15;;;;;;;7.32;5.18;;;870.50;972.80;;;;;;5028834;28;20113;-79
2022/05/13 12:41:10;;;;;;;15.32;5.28;;;870.40;998.40;;;;;;5032013;28;20557;-78
2022/05/13 12:44:13;;;;;;;8.93;5.13;;;870.50;998.40;;;;;;5021874;28;20028;-78
2022/05/13 12:47:14;;;;;;;8.15;5.50;;;870.40;998.40;;;;;;5091151;28;20123;-78
2022/05/13 12:50:27;;;;;;;7.93;5.38;;;870.40;998.40;;;;;;5110797;28;20032;-79
2022/05/13 12:52:53;;;;;;;13.25;5.40;;;845.50;1024.00;;;;;;5070899;28;20494;-79